createdAt,value
2018-11-25T00:00:19.029Z,19.42
2018-11-25T00:02:48.606Z,20.60
2018-11-25T00:05:18.027Z,19.55
2018-11-25T00:07:47.337Z,19.15
2018-11-25T00:10:17.406Z,19.73
2018-11-25T00:12:47.505Z,19.73
2018-11-25T00:15:17.709Z,18.70
2018-11-25T00:18:49.045Z,19.65
2018-11-25T00:21:17.623Z,19.32
2018-11-25T00:23:47.457Z,18.82
2018-11-25T00:26:17.695Z,19.55
2018-11-25T00:28:46.422Z,18.92
2018-11-25T00:31:14.890Z,19.35
2018-11-25T00:33:44.456Z,19.35
2018-11-25T00:36:13.133Z,18.65
2018-11-25T00:38:41.769Z,18.35
2018-11-25T00:41:10.766Z,18.35
2018-11-25T00:43:41.181Z,19.02
2018-11-25T00:46:10.485Z,17.70
2018-11-25T00:48:40.792Z,18.45
2018-11-25T00:51:09.966Z,17.95
2018-11-25T00:53:39.237Z,17.80
2018-11-25T00:56:07.983Z,17.62
2018-11-25T00:58:36.584Z,18.23
2018-11-25T01:01:05.912Z,18.55
2018-11-25T01:03:36.009Z,17.80
2018-11-25T01:06:06.354Z,18.57
2018-11-25T01:08:34.972Z,17.82
2018-11-25T01:11:04.874Z,17.75
2018-11-25T01:13:34.213Z,17.52
2018-11-25T01:16:03.659Z,17.50
2018-11-25T01:18:33.583Z,17.45
2018-11-25T01:21:03.708Z,17.40
2018-11-25T01:23:33.079Z,17.67
2018-11-25T01:26:01.664Z,16.90
2018-11-25T01:28:30.503Z,17.02
2018-11-25T01:31:00.399Z,17.57
2018-11-25T01:33:30.305Z,16.45
2018-11-25T01:36:00.145Z,17.00
2018-11-25T01:38:29.237Z,16.62
2018-11-25T01:40:58.588Z,17.25
2018-11-25T01:43:27.261Z,16.80
2018-11-25T01:45:56.882Z,16.35
2018-11-25T01:48:26.617Z,16.48
2018-11-25T01:50:56.003Z,16.35
2018-11-25T01:53:24.560Z,16.45
2018-11-25T01:55:54.014Z,15.85
2018-11-25T01:58:22.585Z,16.17
2018-11-25T02:00:51.105Z,15.88
2018-11-25T02:03:19.691Z,15.98
2018-11-25T02:05:49.827Z,16.00
2018-11-25T02:08:18.196Z,16.37
2018-11-25T02:10:46.842Z,15.13
2018-11-25T02:13:15.245Z,15.83
2018-11-25T02:15:46.258Z,15.25
2018-11-25T02:18:14.937Z,15.45
2018-11-25T02:20:43.492Z,15.60
2018-11-25T02:23:13.858Z,16.00
2018-11-25T02:25:42.386Z,15.45
2018-11-25T02:28:10.975Z,15.32
2018-11-25T02:30:40.424Z,14.85
2018-11-25T02:33:08.825Z,15.23
2018-11-25T02:35:37.444Z,15.53
2018-11-25T02:38:06.028Z,14.45
2018-11-25T02:40:35.238Z,15.18
2018-11-25T02:43:04.283Z,14.07
2018-11-25T02:45:32.878Z,14.80
2018-11-25T02:48:02.009Z,14.10
2018-11-25T02:50:31.351Z,14.70
2018-11-25T02:53:01.318Z,14.87
2018-11-25T02:55:29.809Z,14.00
2018-11-25T02:57:58.776Z,14.47
2018-11-25T03:00:27.361Z,14.63
2018-11-25T03:02:56.423Z,14.05
2018-11-25T03:05:25.877Z,13.83
2018-11-25T03:07:54.396Z,13.78
2018-11-25T03:10:23.011Z,13.80
2018-11-25T03:12:51.781Z,14.28
2018-11-25T03:15:20.282Z,14.40
2018-11-25T03:17:48.761Z,13.35
2018-11-25T03:20:17.315Z,14.73
2018-11-25T03:22:46.576Z,13.20
2018-11-25T03:25:16.250Z,13.68
2018-11-25T03:27:44.628Z,13.00
2018-11-25T03:30:13.741Z,13.25
2018-11-25T03:32:44.386Z,13.20
2018-11-25T03:35:13.161Z,13.13
2018-11-25T03:37:42.442Z,13.28
2018-11-25T03:40:12.338Z,12.78
2018-11-25T03:42:40.896Z,13.05
2018-11-25T03:45:12.070Z,13.25
2018-11-25T03:47:41.517Z,13.95
2018-11-25T03:50:10.496Z,12.68
2018-11-25T03:52:39.604Z,12.50
2018-11-25T03:55:08.720Z,12.40
2018-11-25T03:57:39.067Z,13.15
2018-11-25T04:00:13.502Z,12.80
2018-11-25T04:02:42.099Z,12.55
2018-11-25T04:05:11.258Z,12.45
2018-11-25T04:07:39.751Z,12.85
2018-11-25T04:10:09.285Z,12.40
2018-11-25T04:12:38.289Z,12.10
2018-11-25T04:15:09.041Z,12.03
2018-11-25T04:17:37.670Z,12.30
2018-11-25T04:20:07.888Z,12.78
2018-11-25T04:22:37.706Z,12.28
2018-11-25T04:25:07.537Z,12.70
2018-11-25T04:27:36.310Z,12.23
2018-11-25T04:30:09.519Z,12.60
2018-11-25T04:32:38.071Z,12.13
2018-11-25T04:35:07.264Z,11.65
2018-11-25T04:37:36.367Z,11.93
2018-11-25T04:40:05.199Z,11.43
2018-11-25T04:42:33.728Z,11.60
2018-11-25T04:45:02.323Z,12.13
2018-11-25T04:47:30.914Z,11.40
2018-11-25T04:49:59.239Z,11.38
2018-11-25T04:52:27.779Z,10.98
2018-11-25T04:54:57.718Z,11.50
2018-11-25T04:57:28.040Z,10.78
2018-11-25T04:59:56.574Z,11.43
2018-11-25T05:02:25.223Z,11.45
2018-11-25T05:04:54.840Z,11.20
2018-11-25T05:07:23.995Z,10.63
2018-11-25T05:09:52.440Z,10.93
2018-11-25T05:12:20.939Z,10.65
2018-11-25T05:14:49.404Z,11.12
2018-11-25T05:17:17.776Z,11.18
2018-11-25T05:19:46.459Z,11.38
2018-11-25T05:22:14.917Z,10.80
2018-11-25T05:24:43.404Z,10.63
2018-11-25T05:27:11.887Z,10.93
2018-11-25T05:29:41.206Z,10.63
2018-11-25T05:32:09.770Z,10.80
2018-11-25T05:34:38.731Z,10.35
2018-11-25T05:37:08.761Z,10.43
2018-11-25T05:39:38.261Z,10.90
2018-11-25T05:42:06.805Z,11.08
2018-11-25T05:44:35.146Z,10.50
2018-11-25T05:49:40.675Z,10.65
2018-11-25T05:52:09.556Z,10.00
2018-11-25T05:54:38.283Z,9.78
2018-11-25T05:57:07.002Z,10.03
2018-11-25T05:59:35.573Z,9.73
2018-11-25T06:02:06.391Z,9.43
2018-11-25T06:04:37.697Z,9.03
2018-11-25T06:07:06.935Z,8.23
2018-11-25T06:09:36.081Z,7.85
2018-11-25T06:12:06.096Z,7.90
2018-11-25T06:14:35.542Z,8.18
2018-11-25T06:17:05.843Z,7.65
2018-11-25T06:19:34.466Z,8.18
2018-11-25T06:22:02.973Z,7.85
2018-11-25T06:24:31.612Z,8.00
2018-11-25T06:27:00.356Z,7.92
2018-11-25T06:29:29.091Z,7.08
2018-11-25T06:31:58.045Z,7.58
2018-11-25T06:34:26.813Z,7.30
2018-11-25T06:36:55.465Z,7.47
2018-11-25T06:39:24.330Z,7.78
2018-11-25T06:41:53.008Z,6.90
2018-11-25T06:44:21.710Z,10.58
2018-11-25T06:46:50.369Z,13.13
2018-11-25T06:49:19.149Z,11.80
2018-11-25T06:51:47.665Z,13.22
2018-11-25T06:54:16.237Z,13.28
2018-11-25T06:56:45.081Z,15.13
2018-11-25T06:59:13.696Z,25.30
2018-11-25T07:01:42.679Z,21.82
2018-11-25T07:04:12.123Z,19.20
2018-11-25T07:06:40.770Z,28.90
2018-11-25T07:09:10.054Z,24.80
2018-11-25T07:14:06.480Z,26.73
2018-11-25T07:16:35.117Z,24.25
2018-11-25T07:19:03.776Z,66.07
2018-11-25T07:21:32.625Z,61.02
2018-11-25T07:24:01.454Z,25.97
2018-11-25T07:26:30.174Z,26.87
2018-11-25T07:29:01.936Z,26.17
2018-11-25T07:31:30.519Z,26.82
2018-11-25T07:34:00.030Z,27.87
2018-11-25T07:36:28.678Z,29.10
2018-11-25T07:38:57.568Z,29.92
2018-11-25T07:41:26.472Z,38.05
2018-11-25T07:43:55.360Z,105.72
2018-11-25T07:46:24.238Z,102.50
2018-11-25T07:48:53.317Z,94.87
2018-11-25T07:51:22.116Z,83.60
2018-11-25T07:53:52.221Z,81.02
2018-11-25T07:56:21.056Z,73.45
2018-11-25T07:58:49.911Z,70.30
2018-11-25T08:01:18.801Z,68.62
2018-11-25T08:03:47.624Z,67.75
2018-11-25T08:06:16.540Z,61.98
2018-11-25T08:08:45.389Z,60.45
2018-11-25T08:11:14.457Z,57.55
2018-11-25T08:13:43.266Z,55.15
2018-11-25T08:16:11.806Z,55.73
2018-11-25T08:18:40.711Z,54.05
2018-11-25T08:21:09.889Z,51.90
2018-11-25T08:23:39.158Z,50.55
2018-11-25T08:26:07.841Z,47.93
2018-11-25T08:28:36.618Z,47.70
2018-11-25T08:31:07.498Z,46.00
2018-11-25T08:33:36.237Z,45.98
2018-11-25T08:36:05.170Z,44.48
2018-11-25T08:38:34.477Z,43.73
2018-11-25T08:41:03.796Z,44.13
2018-11-25T08:43:32.558Z,41.77
2018-11-25T08:46:06.645Z,41.70
2018-11-25T08:48:35.827Z,41.30
2018-11-25T08:51:04.580Z,40.60
2018-11-25T08:53:33.525Z,39.10
2018-11-25T08:56:02.581Z,38.67
2018-11-25T08:58:31.384Z,39.60
2018-11-25T09:01:00.136Z,36.03
2018-11-25T09:03:28.954Z,35.15
2018-11-25T09:05:57.610Z,34.40
2018-11-25T09:08:26.302Z,34.75
2018-11-25T09:10:55.301Z,32.58
2018-11-25T09:13:25.428Z,32.78
2018-11-25T09:15:56.507Z,31.80
2018-11-25T09:18:25.349Z,31.05
2018-11-25T09:20:55.582Z,31.42
2018-11-25T09:23:24.420Z,30.35
2018-11-25T09:25:53.409Z,29.27
2018-11-25T09:28:22.976Z,28.02
2018-11-25T09:30:51.956Z,28.27
2018-11-25T09:33:21.770Z,27.67
2018-11-25T09:35:51.467Z,26.87
2018-11-25T09:38:20.284Z,25.72
2018-11-25T09:40:49.773Z,25.30
2018-11-25T09:43:18.429Z,25.43
2018-11-25T09:45:47.219Z,25.37
2018-11-25T09:48:16.140Z,23.18
2018-11-25T09:50:44.693Z,23.25
2018-11-25T09:53:13.375Z,22.77
2018-11-25T09:55:42.392Z,22.32
2018-11-25T09:58:11.819Z,21.42
2018-11-25T10:00:41.605Z,21.35
2018-11-25T10:03:11.260Z,21.77
2018-11-25T10:05:40.731Z,19.82
2018-11-25T10:08:09.498Z,20.25
2018-11-25T10:10:38.229Z,19.90
2018-11-25T10:13:06.839Z,20.77
2018-11-25T10:15:35.727Z,18.77
2018-11-25T10:18:04.557Z,18.87
2018-11-25T10:20:33.193Z,18.55
2018-11-25T10:23:02.005Z,18.35
2018-11-25T10:25:30.696Z,18.20
2018-11-25T10:27:59.304Z,17.30
2018-11-25T10:30:28.480Z,17.67
2018-11-25T10:32:58.604Z,17.70
2018-11-25T10:36:30.472Z,17.23
2018-11-25T10:38:59.896Z,17.02
2018-11-25T10:41:28.489Z,16.27
2018-11-25T10:43:57.031Z,16.67
2018-11-25T10:46:26.048Z,16.05
2018-11-25T10:48:55.403Z,16.27
2018-11-25T10:51:24.105Z,15.32
2018-11-25T10:53:53.511Z,15.83
2018-11-25T10:56:22.189Z,15.65
2018-11-25T10:58:51.537Z,14.50
2018-11-25T11:01:25.805Z,14.95
2018-11-25T11:03:55.442Z,15.45
2018-11-25T11:06:29.539Z,14.95
2018-11-25T11:08:58.236Z,16.23
2018-11-25T11:11:26.943Z,18.17
2018-11-25T11:13:55.689Z,18.80
2018-11-25T11:16:24.476Z,19.15
2018-11-25T11:18:53.269Z,18.95
2018-11-25T11:21:21.976Z,17.82
2018-11-25T11:23:50.746Z,17.32
2018-11-25T11:26:20.792Z,16.30
2018-11-25T11:28:49.385Z,16.10
2018-11-25T11:31:18.220Z,16.05
2018-11-25T11:33:47.093Z,14.65
2018-11-25T11:36:16.459Z,14.63
2018-11-25T11:38:45.191Z,14.50
2018-11-25T11:41:13.974Z,14.65
2018-11-25T11:43:43.334Z,14.00
2018-11-25T11:46:11.975Z,14.43
2018-11-25T11:48:40.674Z,13.68
2018-11-25T11:51:09.370Z,13.15
2018-11-25T11:53:37.957Z,13.05
2018-11-25T11:56:12.629Z,13.20
2018-11-25T11:58:41.369Z,12.60
2018-11-25T12:01:12.463Z,12.63
2018-11-25T12:03:41.100Z,12.07
2018-11-25T12:06:09.702Z,12.00
2018-11-25T12:08:38.459Z,12.37
2018-11-25T12:11:07.434Z,12.13
2018-11-25T12:13:37.381Z,11.68
2018-11-25T12:16:05.858Z,12.28
2018-11-25T12:18:35.521Z,11.35
2018-11-25T12:21:05.258Z,11.43
2018-11-25T12:23:33.874Z,11.68
2018-11-25T12:26:02.997Z,11.08
2018-11-25T12:28:31.720Z,11.15
2018-11-25T12:31:02.303Z,11.18
2018-11-25T12:33:30.857Z,11.25
2018-11-25T12:36:00.853Z,10.63
2018-11-25T12:38:29.886Z,9.83
2018-11-25T12:40:58.509Z,10.15
2018-11-25T12:43:28.255Z,10.82
2018-11-25T12:45:58.324Z,10.38
2018-11-25T12:48:28.406Z,10.80
2018-11-25T12:50:57.757Z,10.25
2018-11-25T12:53:27.991Z,10.15
2018-11-25T12:55:57.854Z,9.78
2018-11-25T12:58:27.972Z,10.10
2018-11-25T13:00:58.199Z,10.28
2018-11-25T13:03:28.755Z,9.83
2018-11-25T13:05:59.655Z,10.50
2018-11-25T13:08:29.959Z,10.75
2018-11-25T13:10:59.545Z,10.18
2018-11-25T13:13:29.756Z,9.05
2018-11-25T13:16:00.197Z,10.13
2018-11-25T13:18:30.534Z,10.03
2018-11-25T13:21:01.055Z,10.15
2018-11-25T13:23:30.760Z,10.93
2018-11-25T13:26:00.516Z,9.88
2018-11-25T13:28:30.428Z,9.98
2018-11-25T13:31:01.174Z,9.73
2018-11-25T13:33:31.961Z,10.15
2018-11-25T13:36:02.363Z,9.35
2018-11-25T13:38:32.668Z,10.78
2018-11-25T13:41:03.281Z,10.23
2018-11-25T13:43:34.077Z,10.00
2018-11-25T13:46:04.403Z,10.23
2018-11-25T13:48:34.231Z,10.48
2018-11-25T13:51:09.497Z,9.65
2018-11-25T13:53:39.665Z,9.60
2018-11-25T13:56:09.342Z,9.98
2018-11-25T13:58:39.172Z,9.58
2018-11-25T14:01:09.374Z,10.45
2018-11-25T14:03:40.737Z,9.95
2018-11-25T14:06:13.176Z,10.25
2018-11-25T14:08:43.556Z,9.78
2018-11-25T14:11:14.874Z,9.45
2018-11-25T14:13:44.702Z,10.10
2018-11-25T14:16:15.373Z,9.80
2018-11-25T14:18:45.174Z,9.45
2018-11-25T14:21:15.794Z,9.48
2018-11-25T14:23:45.581Z,9.23
2018-11-25T14:26:18.362Z,9.85
2018-11-25T14:28:48.179Z,8.83
2018-11-25T14:31:18.315Z,9.23
2018-11-25T14:33:48.628Z,9.03
2018-11-25T14:36:18.305Z,10.08
2018-11-25T14:38:48.336Z,9.38
2018-11-25T14:41:18.470Z,10.03
2018-11-25T14:43:48.923Z,10.10
2018-11-25T14:46:19.086Z,9.48
2018-11-25T14:48:49.385Z,9.95
2018-11-25T14:51:19.534Z,9.28
2018-11-25T14:53:50.531Z,9.48
2018-11-25T14:56:19.171Z,9.35
2018-11-25T14:58:48.521Z,9.88
2018-11-25T15:01:18.681Z,9.55
2018-11-25T15:03:48.487Z,9.60
2018-11-25T15:06:18.257Z,9.50
2018-11-25T15:08:48.937Z,9.28
2018-11-25T15:11:18.584Z,9.38
2018-11-25T15:13:48.639Z,9.03
2018-11-25T15:16:17.769Z,9.23
2018-11-25T15:18:46.623Z,9.33
2018-11-25T15:21:15.666Z,9.35
2018-11-25T15:23:45.283Z,10.15
2018-11-25T15:26:16.157Z,10.00
2018-11-25T15:28:46.021Z,9.20
2018-11-25T15:31:15.057Z,9.48
2018-11-25T15:33:44.178Z,10.20
2018-11-25T15:36:13.033Z,9.38
2018-11-25T15:38:42.350Z,9.10
2018-11-25T15:41:11.380Z,9.30
2018-11-25T15:43:40.606Z,9.53
2018-11-25T15:46:09.898Z,10.08
2018-11-25T15:48:38.230Z,10.38
2018-11-25T15:51:06.856Z,9.73
2018-11-25T15:53:37.029Z,9.90
2018-11-25T15:56:09.068Z,9.73
2018-11-25T15:58:37.729Z,10.13
2018-11-25T16:01:07.044Z,10.23
2018-11-25T16:03:36.006Z,10.23
2018-11-25T16:06:07.909Z,10.72
2018-11-25T16:08:38.409Z,9.60
2018-11-25T16:11:08.345Z,9.95
2018-11-25T16:13:36.835Z,9.70
2018-11-25T16:16:05.550Z,10.13
2018-11-25T16:18:35.802Z,9.60
2018-11-25T16:21:04.397Z,9.05
2018-11-25T16:23:33.118Z,9.93
2018-11-25T16:26:03.350Z,8.58
2018-11-25T16:28:34.359Z,9.60
2018-11-25T16:31:04.973Z,10.00
2018-11-25T16:33:33.766Z,9.60
2018-11-25T16:36:03.583Z,10.10
2018-11-25T16:38:32.584Z,8.85
2018-11-25T16:41:01.328Z,9.23
2018-11-25T16:43:31.046Z,9.48
2018-11-25T16:46:01.146Z,9.93
2018-11-25T16:48:30.017Z,9.63
2018-11-25T16:51:00.717Z,10.15
2018-11-25T16:53:30.031Z,9.60
2018-11-25T16:56:00.045Z,9.55
2018-11-25T16:58:30.766Z,9.93
2018-11-25T17:00:59.783Z,9.80
2018-11-25T17:03:29.209Z,9.05
2018-11-25T17:05:59.402Z,9.60
2018-11-25T17:08:32.634Z,9.73
2018-11-25T17:11:02.426Z,9.25
2018-11-25T17:13:33.007Z,9.43
2018-11-25T17:16:02.562Z,9.30
2018-11-25T17:18:32.885Z,10.05
2018-11-25T17:21:02.745Z,9.68
2018-11-25T17:23:31.648Z,9.78
2018-11-25T17:26:01.812Z,9.40
2018-11-25T17:28:30.700Z,9.83
2018-11-25T17:31:00.046Z,9.73
2018-11-25T17:33:29.078Z,10.00
2018-11-25T17:35:58.029Z,10.18
2018-11-25T17:38:26.717Z,9.98
2018-11-25T17:40:56.626Z,9.68
2018-11-25T17:43:25.676Z,10.35
2018-11-25T17:45:55.179Z,9.20
2018-11-25T17:48:23.885Z,9.70
2018-11-25T17:50:53.003Z,9.95
2018-11-25T17:53:22.271Z,9.85
2018-11-25T17:55:51.506Z,10.10
2018-11-25T17:58:20.089Z,8.90
2018-11-25T18:00:55.554Z,10.15
2018-11-25T18:03:26.760Z,10.30
2018-11-25T18:05:56.213Z,9.80
2018-11-25T18:08:26.602Z,10.05
2018-11-25T18:10:56.138Z,10.53
2018-11-25T18:13:25.799Z,9.88
2018-11-25T18:15:56.525Z,10.20
2018-11-25T18:18:28.157Z,10.20
2018-11-25T18:20:59.343Z,10.00
2018-11-25T18:23:29.821Z,9.95
2018-11-25T18:25:59.122Z,9.80
2018-11-25T18:28:29.584Z,9.95
2018-11-25T18:30:58.811Z,10.30
2018-11-25T18:33:27.856Z,9.93
2018-11-25T18:35:58.104Z,10.23
2018-11-25T18:38:26.808Z,9.80
2018-11-25T18:40:55.467Z,9.83
2018-11-25T18:43:25.633Z,10.28
2018-11-25T18:45:59.327Z,10.58
2018-11-25T18:48:23.583Z,10.23
2018-11-25T18:50:52.303Z,10.68
2018-11-25T18:53:20.999Z,10.20
2018-11-25T18:55:50.321Z,10.35
2018-11-25T18:58:19.234Z,10.35
2018-11-25T19:00:52.903Z,9.95
2018-11-25T19:03:22.799Z,10.40
2018-11-25T19:05:52.019Z,10.60
2018-11-25T19:08:22.176Z,10.38
2018-11-25T19:10:53.489Z,10.78
2018-11-25T19:13:22.182Z,10.60
2018-11-25T19:15:52.041Z,10.32
2018-11-25T19:18:21.323Z,9.98
2018-11-25T19:20:50.104Z,10.75
2018-11-25T19:23:18.937Z,10.38
2018-11-25T19:25:48.762Z,10.55
2018-11-25T19:28:17.896Z,11.03
2018-11-25T19:30:47.638Z,10.25
2018-11-25T19:33:16.342Z,10.10
2018-11-25T19:35:45.456Z,10.35
2018-11-25T19:38:14.533Z,10.60
2018-11-25T19:40:44.690Z,10.30
2018-11-25T19:43:14.863Z,10.40
2018-11-25T19:45:45.439Z,10.43
2018-11-25T19:48:15.065Z,10.90
2018-11-25T19:50:44.539Z,10.60
2018-11-25T19:53:13.767Z,10.75
2018-11-25T19:55:42.550Z,10.72
2018-11-25T19:58:11.370Z,10.93
2018-11-25T20:00:40.005Z,10.43
2018-11-25T20:03:08.952Z,11.10
2018-11-25T20:05:37.870Z,10.80
2018-11-25T20:08:08.489Z,10.78
2018-11-25T20:10:38.459Z,10.60
2018-11-25T20:13:08.573Z,11.12
2018-11-25T20:15:38.261Z,11.18
2018-11-25T20:18:10.083Z,10.68
2018-11-25T20:20:38.709Z,10.95
2018-11-25T20:23:08.408Z,11.45
2018-11-25T20:25:37.324Z,11.28
2018-11-25T20:28:07.656Z,10.70
2018-11-25T20:30:38.018Z,11.57
2018-11-25T20:33:13.003Z,10.90
2018-11-25T20:35:42.006Z,11.12
2018-11-25T20:38:17.060Z,11.48
2018-11-25T20:40:45.921Z,11.97
2018-11-25T20:43:14.459Z,11.40
2018-11-25T20:45:48.503Z,12.07
2018-11-25T20:48:17.774Z,11.60
2018-11-25T20:50:47.235Z,11.78
2018-11-25T20:53:22.299Z,12.18
2018-11-25T20:55:52.559Z,11.97
2018-11-25T20:58:21.627Z,12.40
2018-11-25T21:00:50.167Z,11.97
2018-11-25T21:03:19.275Z,12.07
2018-11-25T21:05:49.400Z,12.88
2018-11-25T21:08:17.982Z,12.43
2018-11-25T21:10:47.459Z,12.80
2018-11-25T21:13:17.322Z,12.85
2018-11-25T21:15:45.928Z,13.08
2018-11-25T21:18:14.649Z,13.20
2018-11-25T21:23:10.353Z,13.20
2018-11-25T21:25:40.308Z,12.60
2018-11-25T21:28:09.886Z,13.25
2018-11-25T21:30:38.718Z,13.45
2018-11-25T21:33:07.357Z,13.28
2018-11-25T21:35:36.386Z,13.30
2018-11-25T21:38:06.509Z,13.35
2018-11-25T21:40:35.032Z,13.45
2018-11-25T21:43:04.699Z,13.72
2018-11-25T21:45:34.012Z,13.80
2018-11-25T21:48:03.752Z,13.68
2018-11-25T21:50:32.457Z,13.75
2018-11-25T21:53:00.984Z,14.53
2018-11-25T21:55:29.567Z,14.25
2018-11-25T21:57:59.572Z,14.47
2018-11-25T22:00:28.232Z,14.33
2018-11-25T22:02:58.742Z,14.07
2018-11-25T22:05:27.333Z,14.98
2018-11-25T22:07:55.988Z,14.38
2018-11-25T22:10:24.863Z,14.07
2018-11-25T22:12:54.616Z,14.50
2018-11-25T22:15:23.277Z,14.45
2018-11-25T22:17:52.028Z,14.95
2018-11-25T22:20:21.701Z,14.90
2018-11-25T22:22:50.193Z,14.63
2018-11-25T22:25:19.587Z,15.43
2018-11-25T22:27:48.605Z,15.60
2018-11-25T22:30:18.394Z,16.05
2018-11-25T22:32:47.624Z,15.70
2018-11-25T22:35:17.638Z,15.25
2018-11-25T22:37:46.504Z,15.58
2018-11-25T22:40:16.368Z,15.83
2018-11-25T22:42:46.025Z,16.10
2018-11-25T22:45:15.648Z,15.13
2018-11-25T22:47:44.659Z,15.58
2018-11-25T22:50:13.873Z,15.23
2018-11-25T22:52:42.717Z,15.58
2018-11-25T22:55:18.647Z,15.15
2018-11-25T22:57:47.767Z,15.55
2018-11-25T23:00:20.567Z,15.80
2018-11-25T23:02:49.558Z,15.32
2018-11-25T23:05:24.045Z,15.43
2018-11-25T23:07:52.999Z,15.65
2018-11-25T23:10:21.728Z,16.40
2018-11-25T23:12:52.225Z,15.80
2018-11-25T23:15:20.952Z,15.88
2018-11-25T23:17:50.058Z,16.60
2018-11-25T23:20:18.515Z,16.35
2018-11-25T23:22:46.994Z,15.90
2018-11-25T23:25:16.881Z,16.87
2018-11-25T23:27:45.998Z,16.32
2018-11-25T23:30:14.643Z,16.10
2018-11-25T23:32:43.177Z,16.25
2018-11-25T23:35:14.901Z,16.35
2018-11-25T23:37:43.510Z,16.60
2018-11-25T23:40:12.331Z,17.17
2018-11-25T23:42:40.950Z,16.35
2018-11-25T23:45:10.163Z,16.32
2018-11-25T23:47:38.726Z,16.87
2018-11-25T23:50:08.268Z,17.45
2018-11-25T23:52:38.546Z,16.85
2018-11-25T23:55:10.688Z,16.45
2018-11-25T23:57:39.401Z,17.17
